Time;durP1;ratioP1;P1;durP2;ratioP2;P2;SDS_P1;SDS_P2;PMS_P1;PMS_P2;Temp;Humidity;BMP_temperature;BMP_pressure;BME280_temperature;BME280_humidity;BME280_pressure;Samples;Min_cycle;Max_cycle;Signal;HPM_P1;HPM_P2
2021/08/07 00:01:55;;;;;;;27.83;15.83;;;;;;;;;;5096721;28;20251;-64
2021/08/07 00:04:23;;;;;;;26.17;13.63;;;;;;;;;;5097539;28;20231;-64
2021/08/07 00:06:52;;;;;;;6.63;4.87;;;;;;;;;;5097566;28;20209;-64
2021/08/07 00:09:20;;;;;;;4.07;1.80;;;;;;;;;;5097377;28;20750;-64
2021/08/07 00:11:48;;;;;;;1.90;1.70;;;;;;;;;;5097489;28;20246;-64
2021/08/07 00:14:16;;;;;;;1.87;1.40;;;;;;;;;;5097327;28;20216;-64
2021/08/07 00:16:44;;;;;;;3.20;1.57;;;;;;;;;;5097222;28;20299;-64
2021/08/07 00:19:12;;;;;;;3.00;2.23;;;;;;;;;;5097702;28;20276;-65
2021/08/07 00:21:40;;;;;;;2.50;1.70;;;;;;;;;;5097315;28;20310;-64
2021/08/07 00:24:10;;;;;;;3.67;2.87;;;;;;;;;;5097115;28;20205;-65
2021/08/07 00:26:37;;;;;;;5.40;2.50;;;;;;;;;;5097369;28;20215;-64
2021/08/07 00:29:05;;;;;;;2.53;1.50;;;;;;;;;;5097082;28;20271;-64
2021/08/07 00:31:33;;;;;;;2.13;1.20;;;;;;;;;;5096908;28;20255;-65
2021/08/07 00:34:01;;;;;;;2.13;1.80;;;;;;;;;;5097151;28;20755;-64
2021/08/07 00:36:29;;;;;;;4.07;1.50;;;;;;;;;;5097108;28;20672;-64
2021/08/07 00:38:57;;;;;;;3.90;1.43;;;;;;;;;;5100626;28;20289;-64
2021/08/07 00:41:27;;;;;;;1.67;1.30;;;;;;;;;;5100776;28;20308;-64
2021/08/07 00:43:55;;;;;;;5.30;2.33;;;;;;;;;;5101039;28;20213;-64
2021/08/07 00:46:23;;;;;;;3.47;1.20;;;;;;;;;;5100517;28;20201;-65
2021/08/07 00:48:51;;;;;;;3.37;1.97;;;;;;;;;;5101026;28;20221;-64
2021/08/07 00:51:19;;;;;;;4.93;1.73;;;;;;;;;;5100920;28;20222;-64
2021/08/07 00:53:47;;;;;;;3.00;1.73;;;;;;;;;;5100758;28;20556;-66
2021/08/07 00:56:14;;;;;;;3.40;1.70;;;;;;;;;;5100650;28;20635;-65
2021/08/07 00:58:44;;;;;;;3.90;1.60;;;;;;;;;;5100905;28;20206;-65
2021/08/07 01:01:13;;;;;;;3.97;1.40;;;;;;;;;;5100467;28;20204;-65
2021/08/07 01:03:45;;;;;;;2.77;1.60;;;;;;;;;;5100460;28;20211;-64
2021/08/07 01:06:20;;;;;;;2.13;1.63;;;;;;;;;;5100776;28;20255;-65
2021/08/07 01:08:53;;;;;;;2.00;1.40;;;;;;;;;;5100314;28;20700;-64
2021/08/07 01:11:24;;;;;;;3.73;1.77;;;;;;;;;;5100495;28;20603;-65
2021/08/07 01:13:55;;;;;;;3.47;1.50;;;;;;;;;;5100238;28;20290;-65
2021/08/07 01:16:25;;;;;;;3.40;1.40;;;;;;;;;;5099835;28;20724;-65
2021/08/07 01:18:54;;;;;;;3.23;1.20;;;;;;;;;;5100625;28;20250;-65
2021/08/07 01:21:24;;;;;;;2.60;1.30;;;;;;;;;;5100260;28;20602;-66
2021/08/07 01:23:54;;;;;;;3.97;1.87;;;;;;;;;;5101030;28;20218;-65
2021/08/07 01:26:25;;;;;;;1.83;1.23;;;;;;;;;;5100802;28;20643;-65
2021/08/07 01:28:57;;;;;;;1.40;1.30;;;;;;;;;;5100132;28;20721;-65
2021/08/07 01:31:25;;;;;;;3.53;1.63;;;;;;;;;;5099586;28;20593;-65
2021/08/07 01:33:53;;;;;;;2.37;1.63;;;;;;;;;;5100170;28;20234;-65
2021/08/07 01:36:21;;;;;;;2.20;1.23;;;;;;;;;;5100054;28;20201;-65
2021/08/07 01:38:50;;;;;;;2.20;1.33;;;;;;;;;;5100005;28;20215;-65
2021/08/07 01:41:20;;;;;;;1.53;1.20;;;;;;;;;;5099994;28;20289;-65
2021/08/07 01:43:48;;;;;;;5.63;2.23;;;;;;;;;;5099839;28;20211;-65
2021/08/07 01:46:18;;;;;;;1.90;1.50;;;;;;;;;;5099501;28;20206;-64
2021/08/07 01:48:52;;;;;;;2.63;1.40;;;;;;;;;;5098784;28;20273;-65
2021/08/07 01:51:22;;;;;;;2.60;1.43;;;;;;;;;;5099800;28;20693;-65
2021/08/07 01:53:50;;;;;;;3.23;1.50;;;;;;;;;;5099833;28;20205;-65
2021/08/07 01:56:21;;;;;;;3.57;1.70;;;;;;;;;;5099978;28;20288;-65
2021/08/07 01:58:50;;;;;;;6.07;1.80;;;;;;;;;;5099697;28;20256;-65
2021/08/07 02:01:22;;;;;;;5.67;1.20;;;;;;;;;;5099189;28;20220;-65
2021/08/07 02:03:51;;;;;;;3.30;2.00;;;;;;;;;;5099496;28;20202;-65
2021/08/07 02:06:19;;;;;;;1.20;1.10;;;;;;;;;;5099213;28;20309;-65
2021/08/07 02:08:47;;;;;;;1.67;1.57;;;;;;;;;;5099414;28;20226;-65
2021/08/07 02:11:16;;;;;;;4.17;1.67;;;;;;;;;;5099515;28;20218;-64
2021/08/07 02:13:44;;;;;;;1.73;1.63;;;;;;;;;;5099020;28;20546;-65
2021/08/07 02:16:12;;;;;;;4.97;1.70;;;;;;;;;;5099076;28;20212;-65
2021/08/07 02:18:42;;;;;;;2.80;1.40;;;;;;;;;;5098866;28;20540;-65
2021/08/07 02:21:11;;;;;;;2.57;1.60;;;;;;;;;;5099062;28;20218;-65
2021/08/07 02:23:39;;;;;;;2.60;1.50;;;;;;;;;;5099348;28;20209;-64
2021/08/07 02:26:08;;;;;;;3.60;1.57;;;;;;;;;;5099069;28;20669;-65
2021/08/07 02:28:36;;;;;;;2.27;1.30;;;;;;;;;;5099256;28;20222;-65
2021/08/07 02:31:05;;;;;;;5.23;1.70;;;;;;;;;;5098837;28;20213;-65
2021/08/07 02:33:35;;;;;;;2.63;1.10;;;;;;;;;;5085665;28;20746;-64
2021/08/07 02:36:05;;;;;;;3.37;1.90;;;;;;;;;;5098541;28;20575;-65
2021/08/07 02:38:34;;;;;;;5.23;1.50;;;;;;;;;;5099157;28;20204;-65
2021/08/07 02:41:02;;;;;;;1.77;1.67;;;;;;;;;;5098459;28;20223;-65
2021/08/07 02:43:31;;;;;;;2.13;1.30;;;;;;;;;;5098807;28;20205;-65
2021/08/07 02:45:59;;;;;;;1.90;1.67;;;;;;;;;;5098216;28;20292;-65
2021/08/07 02:48:28;;;;;;;2.20;1.13;;;;;;;;;;5098852;28;20209;-65
2021/08/07 02:50:57;;;;;;;2.67;1.40;;;;;;;;;;5098832;28;20287;-65
2021/08/07 02:53:27;;;;;;;2.43;1.30;;;;;;;;;;5098745;28;20216;-65
2021/08/07 02:55:55;;;;;;;4.77;1.67;;;;;;;;;;5098556;28;20213;-65
2021/08/07 02:58:23;;;;;;;3.40;1.47;;;;;;;;;;5098369;28;20216;-65
2021/08/07 03:00:51;;;;;;;3.00;1.20;;;;;;;;;;5098026;28;20292;-64
2021/08/07 03:03:19;;;;;;;2.80;1.37;;;;;;;;;;5098691;28;20230;-65
2021/08/07 03:05:47;;;;;;;3.23;1.73;;;;;;;;;;5098427;28;20210;-65
2021/08/07 03:08:15;;;;;;;3.23;1.53;;;;;;;;;;5098411;28;20209;-65
2021/08/07 03:10:45;;;;;;;4.80;1.50;;;;;;;;;;5098301;28;20235;-65
2021/08/07 03:13:13;;;;;;;3.53;1.57;;;;;;;;;;5097965;28;20622;-65
2021/08/07 03:15:41;;;;;;;3.37;1.73;;;;;;;;;;5097996;28;20309;-64
2021/08/07 03:18:09;;;;;;;3.77;1.40;;;;;;;;;;5097991;28;20216;-65
2021/08/07 03:20:37;;;;;;;5.37;1.37;;;;;;;;;;5084961;28;20201;-65
2021/08/07 03:23:06;;;;;;;4.13;1.50;;;;;;;;;;5098095;28;20312;-65
2021/08/07 03:25:34;;;;;;;7.03;1.97;;;;;;;;;;5098074;28;20205;-65
2021/08/07 03:28:04;;;;;;;3.77;2.00;;;;;;;;;;5098164;28;20214;-65
2021/08/07 03:30:32;;;;;;;3.07;1.90;;;;;;;;;;5097717;28;20268;-65
2021/08/07 03:33:00;;;;;;;3.67;1.60;;;;;;;;;;5097759;28;20236;-64
2021/08/07 03:35:28;;;;;;;4.03;1.70;;;;;;;;;;5097958;28;20292;-65
2021/08/07 03:37:56;;;;;;;5.83;1.93;;;;;;;;;;5097856;28;20246;-65
2021/08/07 03:40:24;;;;;;;3.57;1.67;;;;;;;;;;5097888;28;20216;-65
2021/08/07 03:42:52;;;;;;;3.10;1.70;;;;;;;;;;5097501;28;20340;-65
2021/08/07 03:45:22;;;;;;;4.07;1.77;;;;;;;;;;5097608;28;20209;-65
2021/08/07 03:47:52;;;;;;;3.23;2.00;;;;;;;;;;5097564;28;20229;-65
2021/08/07 03:50:21;;;;;;;5.03;2.07;;;;;;;;;;5097772;28;20225;-64
2021/08/07 03:52:50;;;;;;;2.30;1.50;;;;;;;;;;5097604;28;20231;-65
2021/08/07 03:55:18;;;;;;;6.50;1.70;;;;;;;;;;5097780;28;20215;-65
2021/08/07 03:57:53;;;;;;;4.40;1.90;;;;;;;;;;5097816;28;20209;-65
2021/08/07 04:00:23;;;;;;;4.83;2.47;;;;;;;;;;5097334;28;20202;-65
2021/08/07 04:02:51;;;;;;;3.53;1.50;;;;;;;;;;5097162;28;20230;-65
2021/08/07 04:05:19;;;;;;;1.60;1.50;;;;;;;;;;5097550;28;20214;-65
2021/08/07 04:07:47;;;;;;;3.60;2.00;;;;;;;;;;5097109;28;20233;-65
2021/08/07 04:10:17;;;;;;;4.50;1.80;;;;;;;;;;5097253;28;20592;-65
2021/08/07 04:12:45;;;;;;;3.27;1.40;;;;;;;;;;5098910;28;20223;-65
2021/08/07 04:15:13;;;;;;;2.70;1.63;;;;;;;;;;5101353;28;20229;-65
2021/08/07 04:17:42;;;;;;;2.10;1.67;;;;;;;;;;5101570;28;20209;-65
2021/08/07 04:20:11;;;;;;;3.97;1.80;;;;;;;;;;5098072;28;20202;-64
2021/08/07 04:22:39;;;;;;;2.73;1.40;;;;;;;;;;5101358;28;20231;-65
2021/08/07 04:25:08;;;;;;;2.37;1.50;;;;;;;;;;5101593;28;20208;-65
2021/08/07 04:27:36;;;;;;;3.30;1.37;;;;;;;;;;5101478;28;20214;-65
2021/08/07 04:30:05;;;;;;;2.00;1.67;;;;;;;;;;5101112;28;20226;-65
2021/08/07 04:32:33;;;;;;;5.50;1.80;;;;;;;;;;5100763;28;20643;-64
2021/08/07 04:35:02;;;;;;;1.83;1.67;;;;;;;;;;5100842;28;20212;-64
2021/08/07 04:37:30;;;;;;;2.33;1.70;;;;;;;;;;5101111;28;20589;-64
2021/08/07 04:39:58;;;;;;;3.47;1.97;;;;;;;;;;5101198;28;20208;-65
2021/08/07 04:42:26;;;;;;;2.30;1.57;;;;;;;;;;5100969;28;20240;-65
2021/08/07 04:44:54;;;;;;;4.63;1.50;;;;;;;;;;5101208;28;20209;-65
2021/08/07 04:47:22;;;;;;;2.57;1.67;;;;;;;;;;5100642;28;20295;-65
2021/08/07 04:49:50;;;;;;;3.27;1.90;;;;;;;;;;5100871;28;20281;-65
2021/08/07 04:52:19;;;;;;;2.60;1.73;;;;;;;;;;5100779;28;20231;-65
2021/08/07 04:54:47;;;;;;;3.70;1.83;;;;;;;;;;5101262;28;20208;-66
2021/08/07 04:57:15;;;;;;;8.27;1.57;;;;;;;;;;5100758;28;20208;-65
2021/08/07 04:59:43;;;;;;;2.03;1.83;;;;;;;;;;5100986;28;20211;-65
2021/08/07 05:02:11;;;;;;;5.63;1.80;;;;;;;;;;5100351;28;20234;-65
2021/08/07 05:04:39;;;;;;;4.00;1.77;;;;;;;;;;5100997;28;20212;-65
2021/08/07 05:07:07;;;;;;;2.80;1.60;;;;;;;;;;5100669;28;20211;-65
2021/08/07 05:09:36;;;;;;;3.60;1.63;;;;;;;;;;5100752;28;20210;-65
2021/08/07 05:12:04;;;;;;;3.07;1.70;;;;;;;;;;5100459;28;20228;-65
2021/08/07 05:14:32;;;;;;;4.83;1.87;;;;;;;;;;5101221;28;20205;-64
2021/08/07 05:17:00;;;;;;;6.60;1.67;;;;;;;;;;5102502;28;20674;-65
2021/08/07 05:19:28;;;;;;;2.10;1.60;;;;;;;;;;5101402;28;20205;-68
2021/08/07 05:21:56;;;;;;;3.80;1.90;;;;;;;;;;5100523;28;20308;-65
2021/08/07 05:24:24;;;;;;;1.90;1.30;;;;;;;;;;5099143;28;20210;-65
2021/08/07 05:26:53;;;;;;;5.17;1.70;;;;;;;;;;5100468;28;20209;-65
2021/08/07 05:29:21;;;;;;;4.03;1.60;;;;;;;;;;5100492;28;20206;-65
2021/08/07 05:31:49;;;;;;;2.43;1.90;;;;;;;;;;5099808;28;20229;-65
2021/08/07 05:34:17;;;;;;;1.57;1.30;;;;;;;;;;5100474;28;20288;-65
2021/08/07 05:36:45;;;;;;;2.93;1.50;;;;;;;;;;5099896;28;20201;-65
2021/08/07 05:39:13;;;;;;;3.37;1.60;;;;;;;;;;5099880;28;20201;-65
2021/08/07 05:41:41;;;;;;;2.60;1.73;;;;;;;;;;5099722;28;20595;-64
2021/08/07 05:44:10;;;;;;;2.87;1.97;;;;;;;;;;5099645;28;20288;-65
2021/08/07 05:46:38;;;;;;;2.50;1.17;;;;;;;;;;5099476;28;20206;-65
2021/08/07 05:49:07;;;;;;;7.70;1.87;;;;;;;;;;5099863;28;20210;-65
2021/08/07 05:51:35;;;;;;;2.27;1.50;;;;;;;;;;5099556;28;20255;-65
2021/08/07 05:54:03;;;;;;;3.73;1.80;;;;;;;;;;5099580;28;20578;-65
2021/08/07 05:56:32;;;;;;;3.97;1.80;;;;;;;;;;5099855;28;20216;-65
2021/08/07 05:59:00;;;;;;;4.90;1.47;;;;;;;;;;5099761;28;20209;-65
2021/08/07 06:01:29;;;;;;;2.13;1.50;;;;;;;;;;5099169;28;20244;-65
2021/08/07 06:03:57;;;;;;;3.67;1.90;;;;;;;;;;5099630;28;20223;-65
2021/08/07 06:06:25;;;;;;;4.47;1.80;;;;;;;;;;5099319;28;20209;-64
2021/08/07 06:08:53;;;;;;;1.87;1.50;;;;;;;;;;5099488;28;20202;-65
2021/08/07 06:11:21;;;;;;;2.53;1.60;;;;;;;;;;5099520;28;20269;-65
2021/08/07 06:13:49;;;;;;;3.43;1.77;;;;;;;;;;5099265;28;20281;-65
2021/08/07 06:16:17;;;;;;;4.03;1.77;;;;;;;;;;5099276;28;20292;-65
2021/08/07 06:18:47;;;;;;;3.30;1.83;;;;;;;;;;5099159;28;20265;-64
2021/08/07 06:21:15;;;;;;;6.23;1.53;;;;;;;;;;5099332;28;20209;-65
2021/08/07 06:23:43;;;;;;;4.63;2.27;;;;;;;;;;5098708;28;20209;-66
2021/08/07 06:26:11;;;;;;;2.83;1.80;;;;;;;;;;5099549;28;20216;-66
2021/08/07 06:28:39;;;;;;;4.57;2.00;;;;;;;;;;5099098;28;20296;-66
2021/08/07 06:31:09;;;;;;;4.97;1.97;;;;;;;;;;5098629;28;20306;-66
2021/08/07 06:33:37;;;;;;;2.87;1.77;;;;;;;;;;5099414;28;20645;-66
2021/08/07 06:36:07;;;;;;;2.53;2.23;;;;;;;;;;5098415;28;20209;-65
2021/08/07 06:38:35;;;;;;;5.20;1.83;;;;;;;;;;5098597;28;20607;-66
2021/08/07 06:41:04;;;;;;;4.67;1.80;;;;;;;;;;5099090;28;20208;-66
2021/08/07 06:43:31;;;;;;;16.47;9.10;;;;;;;;;;5098895;28;20209;-66
2021/08/07 06:45:59;;;;;;;3.80;2.70;;;;;;;;;;5098149;28;20290;-66
2021/08/07 06:48:27;;;;;;;3.23;1.63;;;;;;;;;;5098720;28;20581;-66
2021/08/07 06:50:55;;;;;;;4.73;1.53;;;;;;;;;;5098677;28;20221;-66
2021/08/07 06:53:25;;;;;;;3.90;1.63;;;;;;;;;;5099022;28;20221;-66
2021/08/07 06:55:53;;;;;;;3.87;1.87;;;;;;;;;;5098727;28;20665;-66
2021/08/07 06:58:21;;;;;;;1.87;1.70;;;;;;;;;;5098573;28;20286;-65
2021/08/07 07:00:49;;;;;;;2.03;1.40;;;;;;;;;;5098659;28;20209;-65
2021/08/07 07:03:17;;;;;;;3.03;1.50;;;;;;;;;;5098629;28;20776;-66
2021/08/07 07:05:45;;;;;;;6.13;2.10;;;;;;;;;;5098355;28;20202;-66
2021/08/07 07:08:13;;;;;;;5.13;2.10;;;;;;;;;;5098392;28;20288;-65
2021/08/07 07:10:42;;;;;;;5.90;2.20;;;;;;;;;;5098275;28;20696;-65
2021/08/07 07:13:11;;;;;;;5.17;2.07;;;;;;;;;;5098188;28;20225;-66
2021/08/07 07:15:39;;;;;;;3.97;1.80;;;;;;;;;;5097787;28;20321;-66
2021/08/07 07:18:07;;;;;;;7.87;2.70;;;;;;;;;;5097756;28;20217;-66
2021/08/07 07:20:35;;;;;;;4.07;1.60;;;;;;;;;;5084707;28;20205;-65
2021/08/07 07:23:05;;;;;;;1.83;1.70;;;;;;;;;;5098102;28;20225;-64
2021/08/07 07:25:33;;;;;;;3.57;2.00;;;;;;;;;;5097972;28;20206;-65
2021/08/07 07:28:03;;;;;;;4.00;2.30;;;;;;;;;;5097831;28;20288;-65
2021/08/07 07:30:31;;;;;;;6.70;1.90;;;;;;;;;;5097313;28;20296;-65
2021/08/07 07:32:59;;;;;;;3.53;1.97;;;;;;;;;;5097219;28;20746;-65
2021/08/07 07:35:27;;;;;;;3.23;2.63;;;;;;;;;;5098117;28;20206;-65
2021/08/07 07:37:55;;;;;;;4.50;2.13;;;;;;;;;;5098045;28;20269;-65
2021/08/07 07:40:23;;;;;;;4.50;1.47;;;;;;;;;;5097877;28;20208;-65
2021/08/07 07:42:51;;;;;;;2.67;1.77;;;;;;;;;;5097694;28;20332;-65
2021/08/07 07:45:20;;;;;;;5.03;2.20;;;;;;;;;;5097476;28;20560;-65
2021/08/07 07:47:48;;;;;;;4.90;2.20;;;;;;;;;;5096924;28;20202;-65
2021/08/07 07:50:17;;;;;;;5.00;1.70;;;;;;;;;;5097920;28;20241;-65
2021/08/07 07:52:45;;;;;;;4.40;1.77;;;;;;;;;;5097335;28;20251;-65
2021/08/07 07:55:13;;;;;;;8.73;2.30;;;;;;;;;;5097734;28;20216;-65
2021/08/07 07:57:41;;;;;;;2.90;1.50;;;;;;;;;;5097495;28;20205;-65
2021/08/07 08:00:10;;;;;;;2.83;2.20;;;;;;;;;;5096911;28;20231;-65
2021/08/07 08:02:39;;;;;;;3.60;2.43;;;;;;;;;;5097281;28;20704;-66
2021/08/07 08:05:08;;;;;;;4.13;1.80;;;;;;;;;;5097696;28;20216;-65
2021/08/07 08:07:36;;;;;;;2.30;1.90;;;;;;;;;;5097457;28;20292;-65
2021/08/07 08:10:04;;;;;;;3.73;2.10;;;;;;;;;;5097326;28;20304;-65
2021/08/07 08:12:32;;;;;;;2.00;1.20;;;;;;;;;;5097460;28;20232;-65
2021/08/07 08:15:01;;;;;;;6.13;1.53;;;;;;;;;;5097330;28;20544;-65
2021/08/07 08:17:31;;;;;;;4.77;1.67;;;;;;;;;;5097344;28;20213;-65
2021/08/07 08:20:00;;;;;;;1.87;1.53;;;;;;;;;;5097041;28;20710;-65
2021/08/07 08:22:28;;;;;;;2.00;1.70;;;;;;;;;;5097411;28;20217;-65
2021/08/07 08:24:56;;;;;;;4.47;1.60;;;;;;;;;;5097162;28;20208;-65
2021/08/07 08:27:24;;;;;;;4.23;1.50;;;;;;;;;;5097535;28;20212;-65
2021/08/07 08:29:52;;;;;;;3.80;2.23;;;;;;;;;;5097344;28;20206;-65
2021/08/07 08:32:20;;;;;;;2.77;1.80;;;;;;;;;;5097076;28;20229;-65
2021/08/07 08:34:48;;;;;;;2.57;1.90;;;;;;;;;;5097011;28;20212;-65
2021/08/07 08:37:17;;;;;;;2.80;1.57;;;;;;;;;;5097228;28;20673;-65
2021/08/07 08:39:45;;;;;;;3.90;2.60;;;;;;;;;;5097057;28;20665;-65
2021/08/07 08:42:13;;;;;;;5.43;2.23;;;;;;;;;;5096987;28;20239;-65
2021/08/07 08:44:41;;;;;;;3.30;2.00;;;;;;;;;;5097026;28;20567;-65
2021/08/07 08:47:09;;;;;;;4.40;2.30;;;;;;;;;;5096950;28;20210;-64
2021/08/07 08:49:37;;;;;;;4.30;2.00;;;;;;;;;;5096861;28;20216;-65
2021/08/07 08:52:06;;;;;;;2.90;2.60;;;;;;;;;;5097112;28;20233;-65
2021/08/07 08:54:36;;;;;;;3.70;2.00;;;;;;;;;;5096760;28;20206;-65
2021/08/07 08:57:04;;;;;;;2.70;1.93;;;;;;;;;;5096684;28;20209;-65
2021/08/07 08:59:32;;;;;;;2.33;1.77;;;;;;;;;;5099577;28;20206;-65
2021/08/07 09:02:00;;;;;;;6.27;2.30;;;;;;;;;;5100096;28;20656;-65
2021/08/07 09:04:28;;;;;;;3.20;1.67;;;;;;;;;;5100882;28;20205;-65
2021/08/07 09:06:56;;;;;;;2.67;1.77;;;;;;;;;;5101103;28;20210;-64
2021/08/07 09:09:36;;;;;;;3.70;1.70;;;;;;;;;;5102690;28;20205;-65
2021/08/07 09:12:05;;;;;;;3.10;2.47;;;;;;;;;;5101192;28;20225;-65
2021/08/07 09:14:33;;;;;;;2.53;2.03;;;;;;;;;;5100879;28;20225;-64
2021/08/07 09:17:19;;;;;;;2.03;1.60;;;;;;;;;;5100253;28;20236;-65
2021/08/07 09:19:52;;;;;;;4.80;2.20;;;;;;;;;;5099972;28;20201;-65
2021/08/07 09:22:20;;;;;;;5.23;1.93;;;;;;;;;;5100154;28;20244;-65
2021/08/07 09:25:03;;;;;;;2.70;1.93;;;;;;;;;;5100423;28;20212;-65
2021/08/07 09:27:34;;;;;;;4.83;2.07;;;;;;;;;;5098061;28;20216;-65
2021/08/07 09:30:03;;;;;;;3.17;2.37;;;;;;;;;;5099622;28;20293;-65
2021/08/07 09:32:44;;;;;;;4.13;1.83;;;;;;;;;;5100077;28;20233;-65
2021/08/07 09:35:13;;;;;;;4.00;2.03;;;;;;;;;;5086959;28;20265;-64
2021/08/07 09:37:41;;;;;;;2.77;2.03;;;;;;;;;;5100059;28;20270;-64
2021/08/07 09:40:10;;;;;;;2.43;2.10;;;;;;;;;;5099886;28;20213;-64
2021/08/07 09:42:51;;;;;;;2.33;1.80;;;;;;;;;;5099510;28;20720;-64
2021/08/07 09:45:23;;;;;;;3.50;1.77;;;;;;;;;;5099786;28;20320;-64
2021/08/07 09:47:57;;;;;;;2.87;2.10;;;;;;;;;;5099920;28;20281;-64
2021/08/07 09:50:26;;;;;;;3.13;2.27;;;;;;;;;;5100004;28;20209;-64
2021/08/07 09:52:54;;;;;;;4.57;2.43;;;;;;;;;;5099506;28;20238;-64
2021/08/07 09:55:22;;;;;;;3.60;2.07;;;;;;;;;;5099846;28;20205;-64
2021/08/07 09:58:02;;;;;;;4.50;2.37;;;;;;;;;;5099207;28;20215;-64
2021/08/07 10:00:38;;;;;;;4.93;2.53;;;;;;;;;;5099053;28;20209;-64
2021/08/07 10:03:16;;;;;;;4.57;2.10;;;;;;;;;;5099554;28;20225;-65
2021/08/07 10:05:45;;;;;;;5.50;2.50;;;;;;;;;;5099623;28;20205;-64
2021/08/07 10:08:13;;;;;;;4.73;2.20;;;;;;;;;;5099643;28;20212;-65
2021/08/07 10:10:41;;;;;;;4.97;2.40;;;;;;;;;;5098628;28;20210;-64
2021/08/07 10:13:11;;;;;;;4.57;2.07;;;;;;;;;;5099014;28;20684;-64
2021/08/07 10:15:40;;;;;;;5.10;2.63;;;;;;;;;;5098825;28;20201;-64
2021/08/07 10:18:08;;;;;;;4.07;2.20;;;;;;;;;;5098762;28;20297;-64
2021/08/07 10:20:38;;;;;;;3.40;1.97;;;;;;;;;;5086065;28;20201;-64
2021/08/07 10:23:06;;;;;;;2.33;2.13;;;;;;;;;;5099101;28;20224;-64
2021/08/07 10:25:35;;;;;;;2.23;2.03;;;;;;;;;;5099189;28;20711;-65
2021/08/07 10:28:04;;;;;;;2.70;2.50;;;;;;;;;;5099076;28;20205;-64
2021/08/07 10:30:34;;;;;;;5.10;2.00;;;;;;;;;;5098561;28;20201;-64
2021/08/07 10:33:03;;;;;;;4.40;2.17;;;;;;;;;;5098630;28;20232;-64
2021/08/07 10:35:31;;;;;;;3.77;2.83;;;;;;;;;;5099115;28;20210;-64
2021/08/07 10:38:00;;;;;;;7.50;4.37;;;;;;;;;;5098706;28;20209;-64
2021/08/07 10:40:28;;;;;;;2.67;2.10;;;;;;;;;;5098999;28;20217;-64
2021/08/07 10:42:56;;;;;;;4.63;2.23;;;;;;;;;;5098259;28;20237;-64
2021/08/07 10:45:24;;;;;;;2.57;1.80;;;;;;;;;;5098319;28;20209;-65
2021/08/07 10:47:53;;;;;;;3.43;2.23;;;;;;;;;;5098305;28;20586;-64
2021/08/07 10:50:45;;;;;;;3.70;2.20;;;;;;;;;;5098848;28;20244;-64
2021/08/07 10:53:29;;;;;;;2.50;2.27;;;;;;;;;;5098253;28;20232;-64
2021/08/07 10:55:57;;;;;;;3.50;1.83;;;;;;;;;;5096227;28;20211;-64
2021/08/07 10:58:32;;;;;;;2.93;1.97;;;;;;;;;;5098195;28;20308;-64
2021/08/07 11:01:15;;;;;;;2.43;1.70;;;;;;;;;;5097974;28;20205;-64
2021/08/07 11:03:44;;;;;;;3.20;1.93;;;;;;;;;;5098148;28;20209;-65
2021/08/07 11:06:13;;;;;;;2.47;1.90;;;;;;;;;;5098365;28;20209;-64
2021/08/07 11:08:41;;;;;;;2.17;1.43;;;;;;;;;;5098460;28;20209;-64
2021/08/07 11:11:24;;;;;;;1.60;1.50;;;;;;;;;;5098346;28;20209;-64
2021/08/07 11:13:51;;;;;;;2.30;1.73;;;;;;;;;;5097490;28;20225;-64
2021/08/07 11:16:20;;;;;;;2.97;1.53;;;;;;;;;;5097843;28;20215;-64
2021/08/07 11:18:50;;;;;;;2.30;1.70;;;;;;;;;;5098069;28;20202;-64
2021/08/07 11:21:37;;;;;;;2.53;1.47;;;;;;;;;;5097531;28;20571;-64
2021/08/07 11:24:05;;;;;;;3.67;1.93;;;;;;;;;;5098033;28;20209;-64
2021/08/07 11:26:47;;;;;;;2.97;1.40;;;;;;;;;;5098002;28;20214;-64
2021/08/07 11:29:15;;;;;;;2.13;1.53;;;;;;;;;;5098023;28;20213;-64
2021/08/07 11:31:43;;;;;;;2.33;2.10;;;;;;;;;;5097199;28;20593;-64
2021/08/07 11:34:28;;;;;;;1.90;1.80;;;;;;;;;;5097930;28;20317;-64
2021/08/07 11:37:16;;;;;;;2.67;2.47;;;;;;;;;;5093964;28;20207;-64
2021/08/07 11:40:02;;;;;;;2.50;1.93;;;;;;;;;;5097692;28;20276;-64
2021/08/07 11:42:34;;;;;;;4.10;2.13;;;;;;;;;;5098070;28;20233;-64
2021/08/07 11:45:02;;;;;;;2.97;2.37;;;;;;;;;;5097463;28;20194;-65
2021/08/07 11:47:31;;;;;;;3.27;2.20;;;;;;;;;;5097634;28;20198;-64
2021/08/07 11:50:05;;;;;;;2.77;2.50;;;;;;;;;;5097766;28;20206;-64
2021/08/07 11:52:33;;;;;;;2.23;2.03;;;;;;;;;;5094030;28;20238;-64
2021/08/07 11:55:03;;;;;;;2.73;2.07;;;;;;;;;;5097409;28;20264;-64
2021/08/07 11:57:31;;;;;;;3.73;2.03;;;;;;;;;;5097300;28;20658;-64
2021/08/07 12:00:13;;;;;;;2.57;2.37;;;;;;;;;;5097310;28;20613;-64
2021/08/07 12:02:41;;;;;;;2.27;1.70;;;;;;;;;;5097029;28;20668;-65
2021/08/07 12:05:11;;;;;;;2.37;2.17;;;;;;;;;;5097699;28;20206;-64
2021/08/07 12:07:39;;;;;;;2.37;1.83;;;;;;;;;;5097971;28;20632;-65
2021/08/07 12:10:10;;;;;;;6.17;2.43;;;;;;;;;;5097754;28;20205;-64
2021/08/07 12:12:44;;;;;;;2.00;1.80;;;;;;;;;;5097439;28;20227;-64
2021/08/07 12:15:15;;;;;;;3.50;2.20;;;;;;;;;;5097019;28;20236;-64
2021/08/07 12:17:47;;;;;;;2.57;2.00;;;;;;;;;;5097518;28;20717;-64
2021/08/07 12:20:19;;;;;;;2.90;1.90;;;;;;;;;;5098421;28;20665;-64
2021/08/07 12:22:54;;;;;;;4.13;2.30;;;;;;;;;;5098949;28;20230;-64
2021/08/07 12:25:22;;;;;;;3.83;1.97;;;;;;;;;;5098242;28;20230;-62
2021/08/07 12:28:08;;;;;;;2.03;1.73;;;;;;;;;;5097840;28;20639;-64
2021/08/07 12:30:51;;;;;;;2.13;1.70;;;;;;;;;;5097876;28;20239;-64
2021/08/07 12:33:22;;;;;;;4.60;2.00;;;;;;;;;;5098853;28;20229;-64
2021/08/07 12:35:53;;;;;;;2.33;2.13;;;;;;;;;;5102063;28;20224;-64
2021/08/07 12:38:23;;;;;;;1.70;1.40;;;;;;;;;;5101900;28;20229;-64
2021/08/07 12:40:54;;;;;;;1.93;1.47;;;;;;;;;;5102644;28;20208;-67
2021/08/07 12:43:29;;;;;;;1.90;1.30;;;;;;;;;;5101633;28;20279;-64
2021/08/07 12:46:02;;;;;;;2.33;1.63;;;;;;;;;;5101598;28;20204;-64
2021/08/07 12:48:48;;;;;;;1.90;1.30;;;;;;;;;;5102503;28;20292;-64
2021/08/07 12:51:29;;;;;;;1.50;1.40;;;;;;;;;;5102317;28;20220;-65
2021/08/07 12:54:01;;;;;;;1.40;1.30;;;;;;;;;;5102021;28;20205;-64
2021/08/07 12:56:32;;;;;;;2.20;1.17;;;;;;;;;;5102709;28;20209;-64
2021/08/07 12:59:02;;;;;;;1.30;1.20;;;;;;;;;;5101146;28;20220;-64
2021/08/07 13:01:32;;;;;;;1.20;1.10;;;;;;;;;;5100837;28;20232;-62
2021/08/07 13:04:02;;;;;;;1.50;1.40;;;;;;;;;;5101017;28;20587;-64
2021/08/07 13:06:34;;;;;;;1.70;1.30;;;;;;;;;;5100941;28;20236;-64
2021/08/07 13:09:21;;;;;;;1.77;1.27;;;;;;;;;;5101387;28;20205;-64
2021/08/07 13:12:01;;;;;;;3.20;3.00;;;;;;;;;;5100860;28;20257;-64
2021/08/07 13:14:29;;;;;;;1.57;1.20;;;;;;;;;;5100827;28;20779;-64
2021/08/07 13:16:57;;;;;;;1.10;1.00;;;;;;;;;;5100057;28;20208;-64
2021/08/07 13:19:26;;;;;;;1.20;1.10;;;;;;;;;;5100532;28;20712;-64
2021/08/07 13:21:56;;;;;;;1.40;1.30;;;;;;;;;;5100535;28;20253;-64
2021/08/07 13:24:28;;;;;;;0.70;0.70;;;;;;;;;;5100658;28;20212;-64
2021/08/07 13:26:56;;;;;;;2.53;1.00;;;;;;;;;;5100558;28;20209;-64
2021/08/07 13:29:25;;;;;;;1.13;1.07;;;;;;;;;;5100597;28;20661;-64
2021/08/07 13:31:53;;;;;;;1.20;1.17;;;;;;;;;;5100066;28;20309;-64
2021/08/07 13:34:21;;;;;;;1.10;1.00;;;;;;;;;;5101786;28;20288;-64
2021/08/07 13:36:49;;;;;;;0.83;0.83;;;;;;;;;;5100372;28;20208;-64
2021/08/07 13:39:19;;;;;;;0.80;0.80;;;;;;;;;;5100105;28;20241;-64
2021/08/07 13:41:47;;;;;;;2.73;1.57;;;;;;;;;;5100185;28;20252;-64
2021/08/07 13:44:15;;;;;;;1.20;0.80;;;;;;;;;;5099608;28;20293;-64
2021/08/07 13:46:43;;;;;;;0.90;0.60;;;;;;;;;;5099094;28;20288;-64
2021/08/07 13:49:11;;;;;;;2.13;1.00;;;;;;;;;;5099757;28;20248;-64
2021/08/07 13:51:39;;;;;;;1.50;1.13;;;;;;;;;;5099692;28;20225;-64
2021/08/07 13:54:06;;;;;;;3.60;1.30;;;;;;;;;;5099688;28;20214;-64
2021/08/07 13:56:37;;;;;;;0.83;0.77;;;;;;;;;;5100074;28;20225;-64
2021/08/07 13:59:07;;;;;;;0.80;0.77;;;;;;;;;;5100143;28;20205;-64
2021/08/07 14:01:35;;;;;;;2.80;1.47;;;;;;;;;;5100026;28;20225;-64
2021/08/07 14:04:04;;;;;;;3.17;1.90;;;;;;;;;;5117454;28;20262;-64
2021/08/07 14:06:32;;;;;;;2.37;1.10;;;;;;;;;;5119959;28;20298;-64
2021/08/07 14:09:00;;;;;;;2.00;1.20;;;;;;;;;;5119861;28;20296;-64
2021/08/07 14:11:28;;;;;;;1.07;0.97;;;;;;;;;;5119721;28;20263;-64
2021/08/07 14:13:57;;;;;;;2.90;1.40;;;;;;;;;;5098178;28;20201;-64
2021/08/07 14:16:25;;;;;;;3.73;0.93;;;;;;;;;;5098967;28;20253;-64
2021/08/07 14:18:54;;;;;;;1.60;1.20;;;;;;;;;;5099376;28;20255;-64
2021/08/07 14:21:21;;;;;;;2.30;0.90;;;;;;;;;;5099470;28;20222;-65
2021/08/07 14:23:49;;;;;;;1.80;1.53;;;;;;;;;;5099590;28;20232;-65
2021/08/07 14:26:17;;;;;;;0.80;0.80;;;;;;;;;;5100084;28;20201;-64
2021/08/07 14:28:45;;;;;;;1.00;1.00;;;;;;;;;;5099508;28;20245;-64
2021/08/07 14:31:15;;;;;;;1.27;1.17;;;;;;;;;;5098348;28;20207;-64
2021/08/07 14:33:43;;;;;;;1.90;1.53;;;;;;;;;;5099315;28;20235;-64
2021/08/07 14:36:11;;;;;;;2.00;1.43;;;;;;;;;;5098747;28;20275;-64
2021/08/07 14:38:41;;;;;;;1.50;1.27;;;;;;;;;;5099312;28;20232;-64
2021/08/07 14:41:11;;;;;;;1.00;1.00;;;;;;;;;;5098914;28;20287;-65
2021/08/07 14:43:39;;;;;;;1.27;1.17;;;;;;;;;;5098940;28;20244;-64
2021/08/07 14:46:07;;;;;;;2.30;1.60;;;;;;;;;;5098284;28;20284;-64
2021/08/07 14:48:37;;;;;;;1.37;1.20;;;;;;;;;;5098943;28;20205;-64
2021/08/07 14:51:05;;;;;;;4.57;1.63;;;;;;;;;;5098726;28;20629;-64
2021/08/07 14:53:33;;;;;;;1.50;1.13;;;;;;;;;;5098643;28;20244;-64
2021/08/07 14:56:01;;;;;;;3.53;1.50;;;;;;;;;;5098179;28;20225;-64
2021/08/07 14:58:32;;;;;;;1.77;1.30;;;;;;;;;;5098551;28;20205;-64